»·PEaware :: N132KT U08-P52

N132KT :: U08-P52

FLIGHT INFORMATION

Flight Status: Arrived
Operator: Privately registered:
United States
More flights under this callsign
Pilot: Keith S. (1)
Aircraft: BEECH AIRCRAFT BARON
(BE58)
More flights by this aircraft type
Origin: U08 Perkins
United States
Destination: P52 Cottonwood
United States
More flights between these airports :: More routes between these airports
Route:
File this flight plan on PilotEdge
Remarks:
Altitude:
(Current/Filed)
9,500ft
Speed:
(Current/Filed)
165kts
Departed: 23-Jun-20 07:34 AM
Arrived: 23-Jun-20 08:33 AM
Distance/Time
Traveled:
161nm/0:59
Distance/Time
To Go:
Arrived

Flight Plot

Page will automatically refresh every two minutes.

Flight plan parsing failed; only flown route is shown


Map Options




Map Legend


Flown Route
Filed Route
Departure Airport
Arrival Airport
Navaid (VOR, NDB)
Fix

Horizontal Profiles

Position Reports

Time Latitude Longitude Heading Altitude Ground
Speed
23-Jun-20 07:32 36.566369 -114.442145 327 1352ft 0kts
23-Jun-20 07:33 36.569559 -114.444342 330 1358ft 84kts
23-Jun-20 07:34 36.591270 -114.471818 257 2126ft 132kts
23-Jun-20 07:35 36.568083 -114.468764 102 3303ft 118kts
23-Jun-20 07:36 36.553035 -114.430212 122 4226ft 133kts
23-Jun-20 07:37 36.527945 -114.391134 129 4821ft 154kts
23-Jun-20 07:38 36.498808 -114.350627 130 5421ft 160kts
23-Jun-20 07:39 36.468428 -114.309311 131 5959ft 162kts
23-Jun-20 07:40 36.437726 -114.267743 131 6439ft 164kts
23-Jun-20 07:42 36.406759 -114.225891 131 6928ft 165kts
23-Jun-20 07:43 36.375650 -114.183904 131 7380ft 165kts
23-Jun-20 07:44 36.344424 -114.141813 131 7810ft 165kts
23-Jun-20 07:45 36.313222 -114.099808 131 8225ft 165kts
23-Jun-20 07:46 36.282117 -114.057987 131 8618ft 165kts
23-Jun-20 07:47 36.251048 -114.016266 132 8988ft 164kts
23-Jun-20 07:48 36.220030 -113.974666 132 9305ft 164kts
23-Jun-20 07:49 36.188965 -113.933058 132 9526ft 169kts
23-Jun-20 07:50 36.156344 -113.889427 132 9555ft 176kts
23-Jun-20 07:51 36.122134 -113.843734 132 9336ft 186kts
23-Jun-20 07:52 36.087586 -113.797626 132 9348ft 180kts
23-Jun-20 07:53 36.053568 -113.752304 132 9370ft 179kts
23-Jun-20 07:54 36.019712 -113.707259 132 9377ft 178kts
23-Jun-20 07:55 35.985822 -113.662237 133 9381ft 178kts
23-Jun-20 07:56 35.951987 -113.617350 132 9382ft 179kts
23-Jun-20 07:56 35.923753 -113.579935 132 9381ft 179kts
23-Jun-20 07:58 35.884131 -113.527501 132 9383ft 179kts
23-Jun-20 07:59 35.850202 -113.482667 132 9383ft 179kts
23-Jun-20 07:59 35.821791 -113.445171 132 9382ft 179kts
23-Jun-20 08:01 35.782134 -113.392900 132 9382ft 179kts
23-Jun-20 08:01 35.753787 -113.355588 132 9382ft 179kts
23-Jun-20 08:02 35.719705 -113.310780 133 9383ft 179kts
23-Jun-20 08:03 35.685589 -113.265992 133 9389ft 179kts
23-Jun-20 08:04 35.651584 -113.221414 133 9433ft 178kts
23-Jun-20 08:05 35.617735 -113.177093 132 9479ft 178kts
23-Jun-20 08:06 35.583845 -113.132775 132 9523ft 178kts
23-Jun-20 08:07 35.549640 -113.088103 132 9567ft 179kts
23-Jun-20 08:08 35.515408 -113.043452 132 9610ft 180kts
23-Jun-20 08:09 35.481092 -112.998751 132 9732ft 178kts
23-Jun-20 08:10 35.446754 -112.954089 132 9758ft 181kts
23-Jun-20 08:11 35.411886 -112.908796 132 9751ft 183kts
23-Jun-20 08:12 35.376707 -112.863159 132 9749ft 184kts
23-Jun-20 08:13 35.341458 -112.817498 132 9748ft 185kts
23-Jun-20 08:14 35.306053 -112.771697 132 9749ft 185kts
23-Jun-20 08:15 35.270545 -112.725839 132 9743ft 185kts
23-Jun-20 08:16 35.235160 -112.680175 132 9749ft 185kts
23-Jun-20 08:17 35.199675 -112.634454 132 9749ft 185kts
23-Jun-20 08:18 35.164105 -112.588690 132 9729ft 186kts
23-Jun-20 08:19 35.128380 -112.542787 132 9702ft 186kts
23-Jun-20 08:20 35.092588 -112.496857 132 9689ft 186kts
23-Jun-20 08:21 35.056894 -112.451113 132 9688ft 185kts
23-Jun-20 08:22 35.021298 -112.405555 132 9695ft 185kts
23-Jun-20 08:23 34.985785 -112.360170 132 9697ft 185kts
23-Jun-20 08:24 34.950045 -112.314561 133 9687ft 186kts
23-Jun-20 08:25 34.914135 -112.268793 133 9659ft 186kts
23-Jun-20 08:26 34.878215 -112.223075 133 9626ft 187kts
23-Jun-20 08:27 34.842194 -112.177289 133 9610ft 186kts
23-Jun-20 08:28 34.805284 -112.130443 133 9301ft 196kts
23-Jun-20 08:29 34.766594 -112.081886 136 8450ft 214kts
23-Jun-20 08:30 34.718120 -112.042303 160 6032ft 202kts
23-Jun-20 08:31 34.725779 -112.032789 337 3555ft 94kts
23-Jun-20 08:32 34.733276 -112.037927 246 3535ft 0kts

Navigation Log

Ident Type
Flight plan parsing failed, navigation log unavailable